Portada
METAR-TAF:

METAR-TAF

Aeroports :

Sankt Gallen, Suïssa

latitud: 47-29-06N, longitud: 009-33-43E, altitud: 398 m

Observació

L'informe es va fer fa 37 minuts, a les 08:50 UTC
Vent 5 kt del Oest
Temperatura 22°C
Humitat 78%
Pressió 1022 hPa
Visibilitat 10 km o més
sense núvols per sota de 1500 mi sense presència de cumulonimbus.

METAR: LSZR 230850Z 28005KT CAVOK 22/18 Q1022 NOSIG RMK E

Hora: 11:27 (09:27 UTC)

Pronòstic

L'informe es va fer fa 1 hora i 2 minuts, a les 08:25 UTC
Pronòstic vàlid del 23 a les 09 UTC al 23 a les 18 UTC
Vent 3 kt amb direcció variable
Visibilitat 10 km o més
sense núvols per sota de 1500 mi sense presència de cumulonimbus.

TAF: LSZR 230825Z 2309/2318 VRB03KT CAVOK

Observacions i pronòstics meteorològics de més de 4000 aeroports (METAR i TAF).

Les estacions disponibles són els punts grocs i vermells al mapa.

Posi el ratolí al punt desitjat per veure el nom de l'estació.

Feu clic per veure les observacions i els pronòstics meteorològics.

Per canviar el mapa: feu clic els botons verds amb una creu de color negre per apropar; al botó verd amb un guió per allunyar la imatge; o en les fletxes verdes per a mapes adjacents.


METAR-TAF: